Time;durP1;ratioP1;P1;durP2;ratioP2;P2;SDS_P1;SDS_P2;PMS_P1;PMS_P2;Temp;Humidity;BMP_temperature;BMP_pressure;BME280_temperature;BME280_humidity;BME280_pressure;Samples;Min_cycle;Max_cycle;Signal;HPM_P1;HPM_P2
2021/10/01 00:00:23;;;;;;;5.00;1.35;;;13.40;99.90;;;;;;5003839;28;39609;-78
2021/10/01 00:02:49;;;;;;;6.97;1.52;;;13.40;99.90;;;;;;5007613;28;38163;-78
2021/10/01 00:05:15;;;;;;;4.88;1.27;;;13.30;99.90;;;;;;4999455;28;38880;-78
2021/10/01 00:07:42;;;;;;;5.30;1.63;;;13.30;99.90;;;;;;4999890;28;40382;-78
2021/10/01 00:10:08;;;;;;;7.53;1.90;;;13.10;99.90;;;;;;5001439;28;39924;-78
2021/10/01 00:12:35;;;;;;;5.60;1.77;;;12.90;99.90;;;;;;5004979;28;38254;-78
2021/10/01 00:15:01;;;;;;;7.07;1.95;;;12.80;99.90;;;;;;5018291;28;37994;-78
2021/10/01 00:17:28;;;;;;;7.50;1.85;;;12.70;99.90;;;;;;4999182;28;38910;-78
2021/10/01 00:19:54;;;;;;;8.85;1.83;;;12.70;99.90;;;;;;5006076;28;37749;-78
2021/10/01 00:22:20;;;;;;;5.35;1.60;;;12.70;99.90;;;;;;5000266;28;38425;-78
2021/10/01 00:24:46;;;;;;;9.88;2.00;;;12.60;99.90;;;;;;5000028;28;37210;-78
2021/10/01 00:27:13;;;;;;;11.35;1.88;;;12.60;99.90;;;;;;5001870;28;40531;-78
2021/10/01 00:29:40;;;;;;;11.95;1.88;;;12.70;99.90;;;;;;5001370;28;39576;-78
2021/10/01 00:32:06;;;;;;;10.15;2.33;;;12.60;99.90;;;;;;4998979;28;38896;-78
2021/10/01 00:34:33;;;;;;;5.13;1.50;;;12.70;99.90;;;;;;5003105;28;38066;-79
2021/10/01 00:36:59;;;;;;;7.13;1.63;;;12.80;99.90;;;;;;5002424;28;38551;-78
2021/10/01 00:39:25;;;;;;;5.85;1.60;;;12.80;99.90;;;;;;5013337;28;40655;-78
2021/10/01 00:41:51;;;;;;;8.57;2.05;;;12.80;99.90;;;;;;5007284;28;40007;-78
2021/10/01 00:44:17;;;;;;;9.15;1.50;;;12.80;99.90;;;;;;5013545;28;39185;-78
2021/10/01 00:46:43;;;;;;;4.18;1.42;;;12.80;99.90;;;;;;5001530;28;37211;-77
2021/10/01 00:49:09;;;;;;;7.80;1.30;;;12.90;99.90;;;;;;5005548;28;40427;-77
2021/10/01 00:51:39;;;;;;;6.20;1.50;;;12.90;99.90;;;;;;5007826;28;38677;-78
2021/10/01 00:54:05;;;;;;;7.28;1.30;;;12.90;99.90;;;;;;5004531;28;38186;-78
2021/10/01 00:56:32;;;;;;;6.60;1.67;;;13.00;99.90;;;;;;4999918;28;37846;-78
2021/10/01 00:58:58;;;;;;;4.85;1.40;;;13.00;99.90;;;;;;4999581;28;40112;-78
2021/10/01 01:01:24;;;;;;;7.72;1.70;;;13.00;99.90;;;;;;5004483;28;39529;-78
2021/10/01 01:04:01;;;;;;;8.65;1.75;;;13.00;99.90;;;;;;5002879;28;37805;-78
2021/10/01 01:07:08;;;;;;;8.65;1.80;;;12.90;99.90;;;;;;5003150;28;39467;-78
2021/10/01 01:09:57;;;;;;;4.93;1.30;;;13.00;99.90;;;;;;5006265;28;39489;-78
2021/10/01 01:12:54;;;;;;;7.20;1.55;;;13.00;99.90;;;;;;5004926;28;39518;-78
2021/10/01 01:15:27;;;;;;;10.23;1.85;;;13.00;99.90;;;;;;5011980;28;38648;-78
2021/10/01 01:18:15;;;;;;;4.57;1.45;;;13.00;99.90;;;;;;5003063;28;40179;-78
2021/10/01 01:20:51;;;;;;;8.88;1.50;;;13.10;99.90;;;;;;5008140;28;39101;-78
2021/10/01 01:23:32;;;;;;;6.70;1.70;;;13.00;99.90;;;;;;5006887;28;39414;-78
2021/10/01 01:26:17;;;;;;;4.75;1.33;;;13.10;99.90;;;;;;5002382;28;38084;-78
2021/10/01 01:28:54;;;;;;;6.70;1.40;;;13.10;99.90;;;;;;5003174;28;39657;-78
2021/10/01 01:31:26;;;;;;;4.70;1.52;;;13.00;99.90;;;;;;5001460;28;38758;-78
2021/10/01 01:33:56;;;;;;;5.60;1.25;;;13.00;99.90;;;;;;5004029;28;39731;-78
2021/10/01 01:36:22;;;;;;;8.10;1.38;;;13.00;99.90;;;;;;4999770;28;37396;-78
2021/10/01 01:38:53;;;;;;;10.30;1.50;;;13.00;99.90;;;;;;5002871;28;38518;-78
2021/10/01 01:41:21;;;;;;;6.40;1.27;;;13.00;99.90;;;;;;5000749;28;38857;-78
2021/10/01 01:43:49;;;;;;;4.43;1.20;;;13.00;99.90;;;;;;5014297;28;38890;-78
2021/10/01 01:46:16;;;;;;;4.85;1.25;;;13.10;99.90;;;;;;5005877;28;37157;-78
2021/10/01 01:48:44;;;;;;;7.75;1.90;;;13.00;99.90;;;;;;5002990;28;38454;-78
2021/10/01 01:51:11;;;;;;;4.28;1.60;;;13.00;99.90;;;;;;5003583;28;39193;-78
2021/10/01 01:53:38;;;;;;;3.75;1.33;;;13.00;99.90;;;;;;5003079;28;39682;-78
2021/10/01 01:56:06;;;;;;;8.13;1.23;;;13.00;99.90;;;;;;5020333;28;37697;-78
2021/10/01 01:58:34;;;;;;;7.88;1.50;;;13.00;99.90;;;;;;5003608;28;36755;-78
2021/10/01 02:01:02;;;;;;;6.38;1.63;;;13.00;99.90;;;;;;5003059;28;38791;-78
2021/10/01 02:03:30;;;;;;;6.53;1.48;;;13.00;99.90;;;;;;5000255;28;39540;-78
2021/10/01 02:05:58;;;;;;;7.10;1.90;;;13.00;99.90;;;;;;4998966;28;37164;-78
2021/10/01 02:08:25;;;;;;;7.15;1.70;;;13.00;99.90;;;;;;5001426;28;38379;-78
2021/10/01 02:10:52;;;;;;;7.28;1.55;;;13.00;99.90;;;;;;5006153;28;39805;-78
2021/10/01 02:13:21;;;;;;;4.20;1.40;;;13.00;99.90;;;;;;5001202;28;39601;-78
2021/10/01 02:15:52;;;;;;;7.38;1.40;;;13.00;99.90;;;;;;5005595;28;38252;-78
2021/10/01 02:18:22;;;;;;;3.88;1.40;;;13.00;99.90;;;;;;5005262;28;38815;-78
2021/10/01 02:20:50;;;;;;;11.25;1.55;;;13.00;99.90;;;;;;5002298;28;38996;-78
2021/10/01 02:23:17;;;;;;;6.05;1.67;;;13.00;99.90;;;;;;5004538;28;38197;-78
2021/10/01 02:28:36;;;;;;;3.70;1.10;;;13.00;99.90;;;;;;5001211;28;39342;-78
2021/10/01 02:31:12;;;;;;;4.78;1.00;;;13.00;99.90;;;;;;4997195;28;39756;-77
2021/10/01 02:33:44;;;;;;;7.15;1.30;;;12.90;99.90;;;;;;4998837;28;39094;-78
2021/10/01 02:36:11;;;;;;;5.85;1.42;;;12.90;99.90;;;;;;5001385;28;38676;-78
2021/10/01 02:38:38;;;;;;;6.57;1.40;;;12.90;99.90;;;;;;5000168;28;40457;-78
2021/10/01 02:41:04;;;;;;;5.75;1.17;;;12.80;99.90;;;;;;5008144;28;38625;-78
2021/10/01 02:43:31;;;;;;;8.18;1.30;;;12.80;99.90;;;;;;5005348;28;39037;-78
2021/10/01 02:45:57;;;;;;;6.50;1.27;;;12.80;99.90;;;;;;5002768;28;38879;-78
2021/10/01 02:48:23;;;;;;;12.05;1.70;;;12.80;99.90;;;;;;5003313;28;38797;-78
2021/10/01 02:51:01;;;;;;;4.07;1.63;;;12.70;99.90;;;;;;5007108;28;39001;-79
2021/10/01 02:53:59;;;;;;;4.30;1.63;;;12.70;99.90;;;;;;5006366;28;40261;-78
2021/10/01 02:56:30;;;;;;;3.67;1.17;;;12.70;99.90;;;;;;5005166;28;38228;-78
2021/10/01 02:58:59;;;;;;;1.58;0.88;;;12.70;99.90;;;;;;5007112;28;39313;-80
2021/10/01 03:01:28;;;;;;;8.02;1.60;;;12.60;99.90;;;;;;5007452;28;40558;-80
2021/10/01 03:04:00;;;;;;;6.53;1.30;;;12.60;99.90;;;;;;5001943;28;36708;-79
2021/10/01 03:06:30;;;;;;;6.33;1.50;;;12.50;99.90;;;;;;5021907;28;38099;-79
2021/10/01 03:08:56;;;;;;;5.63;1.40;;;12.50;99.90;;;;;;5005371;28;39672;-79
2021/10/01 03:11:30;;;;;;;5.85;1.60;;;12.50;99.90;;;;;;5010084;28;40200;-79
2021/10/01 03:13:59;;;;;;;8.45;1.55;;;12.50;99.90;;;;;;5010352;28;38333;-79
2021/10/01 03:16:26;;;;;;;3.10;1.15;;;12.50;99.90;;;;;;5010284;28;38369;-79
2021/10/01 03:18:55;;;;;;;4.90;1.40;;;12.40;99.90;;;;;;5004319;28;40693;-79
2021/10/01 03:21:23;;;;;;;7.70;1.67;;;12.40;99.90;;;;;;5010684;28;38062;-79
2021/10/01 03:23:52;;;;;;;5.13;1.55;;;12.40;99.90;;;;;;5004070;28;38062;-79
2021/10/01 03:26:19;;;;;;;5.68;1.70;;;12.40;99.90;;;;;;4999600;28;37694;-79
2021/10/01 03:28:46;;;;;;;4.22;1.20;;;12.40;99.90;;;;;;5001884;28;40394;-79
2021/10/01 03:31:13;;;;;;;4.80;1.80;;;12.40;99.90;;;;;;5006471;28;39512;-79
2021/10/01 03:33:40;;;;;;;6.90;1.40;;;12.40;99.90;;;;;;5010848;28;38409;-79
2021/10/01 03:36:09;;;;;;;7.13;1.50;;;12.30;99.90;;;;;;5010041;28;37769;-79
2021/10/01 03:38:35;;;;;;;4.22;1.20;;;12.30;99.90;;;;;;5006325;28;40466;-79
2021/10/01 03:41:01;;;;;;;3.13;1.10;;;12.30;99.90;;;;;;5009913;28;39032;-79
2021/10/01 03:43:28;;;;;;;6.65;1.50;;;12.40;99.90;;;;;;5008758;28;35466;-79
2021/10/01 03:45:57;;;;;;;7.82;1.48;;;12.50;99.90;;;;;;5007415;28;38834;-79
2021/10/01 03:48:25;;;;;;;5.53;1.30;;;12.60;99.90;;;;;;5008890;28;39646;-79
2021/10/01 03:50:53;;;;;;;6.20;1.20;;;12.60;99.90;;;;;;5010258;28;39802;-79
2021/10/01 03:53:19;;;;;;;3.42;1.10;;;12.60;99.90;;;;;;5008021;28;39100;-79
2021/10/01 03:55:45;;;;;;;6.65;1.40;;;12.70;99.90;;;;;;5008267;28;38116;-78
2021/10/01 03:58:11;;;;;;;7.20;1.30;;;12.70;99.90;;;;;;5009219;28;39329;-78
2021/10/01 04:00:37;;;;;;;6.45;1.40;;;12.80;99.90;;;;;;5010215;28;38938;-79
2021/10/01 04:03:03;;;;;;;6.10;1.40;;;12.80;99.90;;;;;;5019676;28;38754;-79
2021/10/01 04:05:30;;;;;;;9.18;1.73;;;12.80;99.90;;;;;;5010112;28;37186;-79
2021/10/01 04:07:56;;;;;;;6.30;1.35;;;12.80;99.90;;;;;;5012558;28;38927;-79
2021/10/01 04:10:22;;;;;;;6.65;1.20;;;12.90;99.90;;;;;;5010610;28;38937;-79
2021/10/01 04:12:49;;;;;;;8.52;1.33;;;13.00;99.90;;;;;;5008393;28;38401;-79
2021/10/01 04:15:15;;;;;;;7.20;1.50;;;12.90;99.90;;;;;;5010114;28;37083;-79
2021/10/01 04:17:41;;;;;;;5.82;1.58;;;12.90;99.90;;;;;;5012154;28;40833;-79
2021/10/01 04:20:08;;;;;;;5.75;1.25;;;12.90;99.90;;;;;;5009617;28;38895;-79
2021/10/01 04:22:34;;;;;;;4.50;1.23;;;12.90;99.90;;;;;;5008560;28;39108;-79
2021/10/01 04:25:00;;;;;;;7.38;1.38;;;12.90;99.90;;;;;;5010528;28;37019;-79
2021/10/01 04:27:26;;;;;;;7.22;1.60;;;12.80;99.90;;;;;;5006061;28;39397;-79
2021/10/01 04:29:52;;;;;;;9.02;1.38;;;12.80;99.90;;;;;;5003836;28;38955;-79
2021/10/01 04:32:18;;;;;;;5.65;1.30;;;12.70;99.90;;;;;;5021206;28;39789;-79
2021/10/01 04:35:01;;;;;;;6.20;1.60;;;12.70;99.90;;;;;;5011538;28;37290;-79
2021/10/01 04:37:27;;;;;;;3.00;1.30;;;12.70;99.90;;;;;;5006110;28;40339;-80
2021/10/01 04:39:54;;;;;;;5.90;1.35;;;12.70;99.90;;;;;;5008008;28;39796;-79
2021/10/01 04:42:21;;;;;;;6.53;1.40;;;12.60;99.90;;;;;;5000335;28;38521;-79
2021/10/01 04:44:51;;;;;;;5.88;1.60;;;12.60;99.90;;;;;;5008998;28;38030;-79
2021/10/01 04:47:17;;;;;;;6.13;1.45;;;12.60;99.90;;;;;;5009059;28;39895;-79
2021/10/01 04:49:44;;;;;;;4.75;1.40;;;12.70;99.90;;;;;;5004623;28;38895;-79
2021/10/01 04:52:11;;;;;;;3.67;1.25;;;12.70;99.90;;;;;;5009472;28;39924;-79
2021/10/01 04:54:37;;;;;;;8.27;1.30;;;12.70;99.90;;;;;;5014282;28;37215;-79
2021/10/01 04:57:04;;;;;;;5.78;1.40;;;12.70;99.90;;;;;;5003616;28;39908;-79
2021/10/01 04:59:30;;;;;;;4.40;1.40;;;12.70;99.90;;;;;;5008048;28;38259;-80
2021/10/01 05:01:56;;;;;;;6.68;1.45;;;12.80;99.90;;;;;;5009449;28;38613;-79
2021/10/01 05:04:23;;;;;;;9.10;2.05;;;12.70;99.90;;;;;;5008263;28;37976;-80
2021/10/01 05:06:50;;;;;;;6.47;1.10;;;12.70;99.90;;;;;;5004079;28;39780;-79
2021/10/01 05:09:16;;;;;;;3.70;1.00;;;12.70;99.90;;;;;;5012055;28;39042;-79
2021/10/01 05:11:42;;;;;;;5.57;1.42;;;12.70;99.90;;;;;;5014676;28;39290;-79
2021/10/01 05:14:08;;;;;;;4.40;1.10;;;12.60;99.90;;;;;;5006688;28;37734;-79
2021/10/01 05:16:34;;;;;;;7.85;1.40;;;12.60;99.90;;;;;;5011655;28;39962;-79
2021/10/01 05:19:00;;;;;;;4.45;1.42;;;12.60;99.90;;;;;;5007908;28;38623;-79
2021/10/01 05:21:26;;;;;;;4.90;1.25;;;12.60;99.90;;;;;;5006266;28;39108;-78
2021/10/01 05:23:53;;;;;;;4.88;1.20;;;12.60;99.90;;;;;;5004180;28;37315;-79
2021/10/01 05:26:19;;;;;;;5.15;1.33;;;12.60;99.90;;;;;;4999632;28;42018;-79
2021/10/01 05:28:45;;;;;;;7.32;1.80;;;12.60;99.90;;;;;;5027302;28;39496;-79
2021/10/01 05:31:11;;;;;;;5.93;1.30;;;12.60;99.90;;;;;;5000799;28;38519;-78
2021/10/01 05:33:37;;;;;;;5.50;1.20;;;12.60;99.90;;;;;;4995977;28;37951;-79
2021/10/01 05:36:03;;;;;;;6.00;1.55;;;12.60;99.90;;;;;;5000642;28;38543;-79
2021/10/01 05:38:31;;;;;;;4.97;1.38;;;12.50;99.90;;;;;;4998321;28;39380;-79
2021/10/01 05:40:57;;;;;;;3.58;1.23;;;12.60;99.90;;;;;;4997257;28;39423;-79
2021/10/01 05:43:26;;;;;;;6.10;1.50;;;12.60;99.90;;;;;;5001114;28;37385;-79
2021/10/01 05:45:54;;;;;;;6.60;1.52;;;12.60;99.90;;;;;;4998950;28;39947;-79
2021/10/01 05:48:22;;;;;;;3.67;1.25;;;12.50;99.90;;;;;;5011486;28;40367;-78
2021/10/01 05:50:54;;;;;;;4.00;1.05;;;12.50;99.90;;;;;;5000472;28;38098;-79
2021/10/01 05:56:11;;;;;;;4.47;1.10;;;12.50;99.90;;;;;;4990754;28;39113;-80
2021/10/01 05:58:38;;;;;;;4.63;1.00;;;12.60;99.90;;;;;;5004411;28;39950;-80
2021/10/01 06:01:05;;;;;;;3.83;1.35;;;12.50;99.90;;;;;;4999138;28;39138;-80
2021/10/01 06:03:31;;;;;;;6.97;1.20;;;12.50;99.90;;;;;;4994790;28;37951;-80
2021/10/01 06:05:57;;;;;;;8.40;1.67;;;12.50;99.90;;;;;;5004556;28;38731;-80
2021/10/01 06:08:23;;;;;;;7.35;1.30;;;12.60;99.90;;;;;;5007280;28;38836;-80
2021/10/01 06:10:50;;;;;;;4.90;1.15;;;12.60;99.90;;;;;;4999094;28;40058;-80
2021/10/01 06:13:16;;;;;;;4.70;1.23;;;12.60;99.90;;;;;;4999689;28;37234;-79
2021/10/01 06:15:44;;;;;;;4.05;1.13;;;12.60;99.90;;;;;;5000934;28;39914;-80
2021/10/01 06:18:10;;;;;;;6.00;1.17;;;12.60;99.90;;;;;;5015859;28;38831;-79
2021/10/01 06:20:37;;;;;;;7.43;0.98;;;12.60;99.90;;;;;;5007625;28;38375;-79
2021/10/01 06:23:03;;;;;;;6.75;1.55;;;12.60;99.90;;;;;;5009292;28;38237;-80
2021/10/01 06:25:29;;;;;;;6.05;1.23;;;12.70;99.90;;;;;;5006286;28;38651;-79
2021/10/01 06:27:55;;;;;;;6.13;1.17;;;12.70;99.90;;;;;;5001482;28;39932;-80
2021/10/01 06:30:21;;;;;;;6.57;1.20;;;12.60;99.90;;;;;;5019961;28;38869;-80
2021/10/01 06:32:48;;;;;;;2.92;1.23;;;12.60;99.90;;;;;;5005709;28;37964;-80
2021/10/01 06:35:14;;;;;;;5.22;1.13;;;12.70;99.90;;;;;;5000273;28;39817;-80
2021/10/01 06:37:40;;;;;;;4.10;1.08;;;12.70;99.90;;;;;;5001938;28;39900;-80
2021/10/01 06:40:07;;;;;;;8.70;1.35;;;12.70;99.90;;;;;;5001966;28;38464;-79
2021/10/01 06:42:35;;;;;;;4.50;1.30;;;12.70;99.90;;;;;;4999554;28;35499;-80
2021/10/01 06:45:04;;;;;;;9.23;1.52;;;12.80;99.90;;;;;;5003259;28;38935;-80
2021/10/01 06:47:48;;;;;;;4.90;1.45;;;12.80;99.90;;;;;;5015547;28;47264;-80
2021/10/01 08:20:50;;;;;;;3.67;1.30;;;13.80;99.90;;;;;;4999328;28;37693;-81
2021/10/01 08:23:16;;;;;;;7.28;1.25;;;13.90;99.90;;;;;;5008348;28;38489;-81
2021/10/01 08:25:43;;;;;;;3.92;1.13;;;13.80;99.90;;;;;;5003692;28;40188;-79
2021/10/01 08:28:09;;;;;;;2.95;1.20;;;13.90;99.90;;;;;;5010399;28;39184;-79
2021/10/01 08:30:36;;;;;;;8.98;1.65;;;14.00;99.90;;;;;;4998356;28;37681;-81
2021/10/01 08:33:03;;;;;;;6.97;1.42;;;14.00;99.90;;;;;;5009680;28;38448;-81
2021/10/01 08:35:30;;;;;;;4.38;1.23;;;13.90;99.90;;;;;;5007892;28;38796;-81
2021/10/01 08:37:58;;;;;;;6.88;1.40;;;14.00;99.90;;;;;;4997747;28;39309;-81
2021/10/01 08:40:25;;;;;;;7.40;1.40;;;14.00;99.90;;;;;;5005698;28;37439;-80
2021/10/01 08:42:53;;;;;;;6.75;1.30;;;14.10;99.90;;;;;;5001097;28;39077;-78
2021/10/01 08:45:24;;;;;;;6.25;1.50;;;14.10;99.90;;;;;;5006993;28;40582;-78
2021/10/01 08:47:51;;;;;;;8.23;1.65;;;14.20;99.90;;;;;;5001747;28;40081;-80
2021/10/01 08:50:22;;;;;;;5.13;1.30;;;14.10;99.90;;;;;;5007063;28;37966;-82
2021/10/01 08:52:50;;;;;;;13.13;1.42;;;14.20;99.90;;;;;;5008051;28;39007;-81
2021/10/01 08:55:17;;;;;;;4.75;1.63;;;14.10;99.90;;;;;;5002396;28;38801;-79
2021/10/01 08:57:44;;;;;;;7.60;1.73;;;14.20;99.90;;;;;;5003374;28;39095;-81
2021/10/01 09:00:14;;;;;;;9.80;1.60;;;14.20;99.90;;;;;;5005351;28;38120;-79
2021/10/01 09:02:41;;;;;;;6.03;1.50;;;14.10;99.90;;;;;;5003511;28;38963;-79
2021/10/01 09:05:07;;;;;;;4.55;1.38;;;14.20;99.90;;;;;;5006362;28;39861;-79
2021/10/01 09:07:33;;;;;;;3.00;1.35;;;14.20;99.90;;;;;;5010259;28;39296;-79
2021/10/01 09:10:00;;;;;;;6.82;1.70;;;14.10;99.90;;;;;;5008481;28;37760;-79
2021/10/01 09:12:26;;;;;;;7.20;1.60;;;14.10;99.90;;;;;;5008104;28;40542;-78
2021/10/01 09:14:56;;;;;;;7.50;2.08;;;14.20;99.90;;;;;;5010689;28;39595;-79
2021/10/01 09:17:30;;;;;;;4.07;1.30;;;14.30;99.90;;;;;;5001534;28;39803;-79
2021/10/01 09:19:58;;;;;;;4.15;1.30;;;14.40;99.90;;;;;;4994933;28;38257;-79
2021/10/01 09:22:24;;;;;;;8.48;1.15;;;14.50;99.90;;;;;;5009734;28;38772;-79
2021/10/01 09:24:50;;;;;;;5.32;1.80;;;14.50;99.90;;;;;;5012133;28;39453;-79
2021/10/01 09:27:16;;;;;;;6.20;1.50;;;14.60;99.90;;;;;;5007265;28;39051;-80
2021/10/01 09:29:42;;;;;;;6.60;1.35;;;14.50;99.90;;;;;;5019999;28;37441;-79
2021/10/01 09:32:10;;;;;;;6.25;1.20;;;14.50;99.90;;;;;;5019269;28;38607;-79
2021/10/01 09:34:39;;;;;;;7.93;1.40;;;14.50;99.90;;;;;;5025527;28;39652;-79
2021/10/01 09:37:11;;;;;;;2.97;1.13;;;14.50;99.90;;;;;;5002775;28;40451;-79
2021/10/01 09:39:40;;;;;;;2.58;1.17;;;14.30;99.90;;;;;;5007331;28;37361;-79
2021/10/01 09:42:18;;;;;;;8.73;1.60;;;14.10;99.90;;;;;;5008655;28;39053;-79
2021/10/01 09:44:59;;;;;;;6.75;1.40;;;14.10;99.90;;;;;;5007232;28;40791;-79
2021/10/01 09:47:30;;;;;;;4.15;1.20;;;14.10;99.90;;;;;;5003703;28;37264;-79
2021/10/01 09:49:59;;;;;;;6.43;1.30;;;14.00;99.90;;;;;;5008334;28;35682;-80
2021/10/01 09:52:50;;;;;;;5.82;1.25;;;13.90;99.90;;;;;;5007583;28;40397;-82
2021/10/01 09:55:22;;;;;;;10.43;1.85;;;13.60;99.90;;;;;;5017431;28;40116;-82
2021/10/01 09:58:01;;;;;;;5.53;1.67;;;13.40;99.90;;;;;;5007025;28;38968;-82
2021/10/01 10:00:45;;;;;;;6.05;1.67;;;13.20;99.90;;;;;;5009339;28;38271;-81
2021/10/01 10:03:23;;;;;;;6.97;1.65;;;13.20;99.90;;;;;;5006927;28;39627;-82
2021/10/01 10:05:53;;;;;;;5.75;1.77;;;13.30;99.90;;;;;;5007603;28;38745;-82
2021/10/01 10:08:23;;;;;;;8.50;1.67;;;13.30;99.90;;;;;;5008368;28;38232;-82
2021/10/01 10:10:49;;;;;;;6.38;1.45;;;13.30;99.90;;;;;;4997007;28;38455;-79
2021/10/01 10:13:15;;;;;;;8.48;1.63;;;13.40;99.90;;;;;;4990375;28;38820;-79
2021/10/01 10:15:41;;;;;;;7.55;2.38;;;13.50;99.90;;;;;;5006169;28;39818;-79
2021/10/01 10:18:20;;;;;;;6.78;2.05;;;13.60;99.90;;;;;;5017601;28;39171;-79
2021/10/01 10:20:46;;;;;;;7.40;2.20;;;13.70;99.90;;;;;;5007908;28;37288;-79
2021/10/01 10:23:12;;;;;;;5.70;1.35;;;13.70;99.90;;;;;;5011019;28;39958;-79
2021/10/01 10:25:38;;;;;;;5.88;1.77;;;13.70;99.90;;;;;;5002013;28;37369;-79
2021/10/01 10:28:05;;;;;;;6.45;1.50;;;13.90;99.90;;;;;;5001451;28;38399;-79
2021/10/01 10:30:31;;;;;;;5.15;1.35;;;13.90;99.90;;;;;;5003164;28;38127;-78
2021/10/01 10:32:57;;;;;;;5.22;1.40;;;13.90;99.90;;;;;;5013753;28;39684;-79
2021/10/01 10:35:39;;;;;;;5.75;1.98;;;14.10;99.90;;;;;;5004428;28;38787;-79
2021/10/01 10:38:06;;;;;;;9.23;2.00;;;14.20;99.90;;;;;;5011092;28;38384;-79
2021/10/01 10:40:40;;;;;;;6.60;1.80;;;14.10;99.90;;;;;;5010254;28;37379;-79
2021/10/01 10:43:06;;;;;;;7.07;1.63;;;14.10;99.90;;;;;;5009762;28;38561;-79
2021/10/01 10:45:36;;;;;;;7.10;1.63;;;14.20;99.90;;;;;;5011286;28;37398;-80
2021/10/01 10:48:07;;;;;;;5.93;1.27;;;14.30;99.90;;;;;;5013159;28;38392;-79
2021/10/01 10:50:39;;;;;;;6.97;1.20;;;14.30;99.90;;;;;;5027241;28;38211;-80
2021/10/01 10:53:14;;;;;;;4.40;1.30;;;14.60;99.90;;;;;;5004776;28;39147;-80
2021/10/01 10:56:01;;;;;;;5.57;1.20;;;14.50;99.90;;;;;;5013439;28;39193;-80
2021/10/01 10:58:31;;;;;;;5.03;1.25;;;14.60;99.90;;;;;;5010203;28;38518;-79
2021/10/01 11:01:23;;;;;;;8.00;1.55;;;14.70;99.90;;;;;;5010907;28;37662;-80
2021/10/01 11:04:09;;;;;;;6.35;1.52;;;14.70;99.90;;;;;;5003393;28;39349;-80
2021/10/01 11:06:39;;;;;;;13.52;1.83;;;14.80;99.90;;;;;;5000015;28;38171;-79
2021/10/01 11:09:14;;;;;;;6.22;1.40;;;14.80;99.90;;;;;;5004984;28;37696;-80
2021/10/01 11:11:44;;;;;;;6.80;1.33;;;14.80;99.90;;;;;;5007699;28;36904;-80
2021/10/01 11:14:16;;;;;;;8.90;1.50;;;14.70;99.90;;;;;;5005156;28;38289;-79
2021/10/01 11:16:43;;;;;;;;;;;14.70;99.90;;;;;;5011513;28;39030;-80
2021/10/01 11:19:10;;;;;;;7.80;1.10;;;14.70;99.90;;;;;;5007699;28;38943;-80
2021/10/01 11:21:42;;;;;;;6.03;1.70;;;14.70;99.90;;;;;;5015412;28;37841;-80
2021/10/01 11:24:18;;;;;;;3.22;1.33;;;14.70;99.90;;;;;;5010622;28;38241;-80
2021/10/01 11:26:54;;;;;;;5.35;1.30;;;14.70;99.90;;;;;;5008985;28;37778;-79
2021/10/01 11:29:23;;;;;;;10.10;2.00;;;14.80;99.90;;;;;;5013820;28;39061;-79
2021/10/01 11:31:58;;;;;;;14.35;2.80;;;14.90;99.90;;;;;;5010811;28;36191;-79
2021/10/01 11:34:45;;;;;;;8.48;1.50;;;15.00;99.90;;;;;;5007946;28;36785;-80
2021/10/01 11:37:35;;;;;;;5.20;0.98;;;15.10;99.90;;;;;;5004015;28;38656;-78
2021/10/01 11:40:06;;;;;;;4.90;1.35;;;15.10;99.90;;;;;;5000086;28;39415;-79
2021/10/01 11:42:39;;;;;;;5.38;1.63;;;15.20;99.90;;;;;;4987986;28;48705;-79
2021/10/01 11:45:12;;;;;;;9.15;1.65;;;15.20;99.90;;;;;;4989445;28;39200;-78
2021/10/01 11:47:47;;;;;;;5.68;1.20;;;15.30;99.90;;;;;;4993783;28;37889;-79
2021/10/01 11:50:14;;;;;;;6.30;1.20;;;15.30;99.90;;;;;;4987262;28;38142;-79
2021/10/01 11:52:45;;;;;;;4.30;1.15;;;15.30;99.90;;;;;;4985396;28;37492;-79
2021/10/01 11:55:13;;;;;;;3.08;1.67;;;15.40;99.90;;;;;;4985048;28;39091;-79
2021/10/01 11:57:43;;;;;;;4.18;1.25;;;15.50;99.90;;;;;;4988851;28;37831;-80
2021/10/01 12:00:12;;;;;;;3.90;1.13;;;15.50;99.90;;;;;;4991358;28;38313;-79
2021/10/01 12:02:45;;;;;;;8.95;1.70;;;15.50;99.90;;;;;;4988117;28;36243;-79
2021/10/01 12:05:22;;;;;;;7.43;1.63;;;15.60;99.90;;;;;;4986857;28;39901;-79
2021/10/01 12:08:02;;;;;;;11.07;1.35;;;15.40;99.90;;;;;;5006025;28;37902;-79
2021/10/01 12:10:31;;;;;;;3.42;1.23;;;15.40;99.90;;;;;;5002068;28;37472;-79
2021/10/01 12:13:09;;;;;;;9.93;2.13;;;15.50;99.90;;;;;;4986685;28;37599;-79
2021/10/01 12:15:37;;;;;;;6.25;1.25;;;15.70;99.90;;;;;;4996856;28;37833;-79
2021/10/01 12:18:06;;;;;;;5.57;1.30;;;15.80;99.90;;;;;;4983737;28;38652;-79
2021/10/01 12:20:46;;;;;;;6.97;1.48;;;16.00;99.90;;;;;;4988992;28;39166;-80
2021/10/01 12:23:24;;;;;;;6.07;1.48;;;16.00;99.90;;;;;;4980210;28;37481;-79
2021/10/01 12:25:52;;;;;;;4.38;1.58;;;16.20;99.90;;;;;;5001495;28;39224;-79
2021/10/01 12:28:19;;;;;;;4.70;1.10;;;16.20;99.90;;;;;;4983121;28;38703;-81
2021/10/01 12:31:07;;;;;;;8.20;1.15;;;16.30;99.90;;;;;;4983813;28;39122;-82
2021/10/01 12:33:33;;;;;;;6.75;0.98;;;16.30;99.90;;;;;;4977233;28;39272;-81
2021/10/01 12:36:00;;;;;;;8.05;1.30;;;16.20;99.90;;;;;;4978697;28;40664;-79
2021/10/01 12:38:27;;;;;;;6.82;1.20;;;16.10;99.90;;;;;;4981691;28;38784;-80
2021/10/01 12:41:15;;;;;;;10.10;1.27;;;16.00;99.90;;;;;;4989847;28;38710;-80
2021/10/01 12:43:57;;;;;;;8.38;1.70;;;15.90;99.90;;;;;;4985297;28;38571;-80
2021/10/01 12:46:48;;;;;;;6.80;1.40;;;15.70;99.90;;;;;;4995289;28;39835;-81
2021/10/01 12:49:20;;;;;;;7.47;1.55;;;15.50;99.90;;;;;;4999836;28;38679;-79
2021/10/01 12:52:00;;;;;;;9.40;2.22;;;15.20;99.90;;;;;;5002382;28;39017;-80
2021/10/01 12:54:28;;;;;;;7.18;1.90;;;15.00;99.90;;;;;;5006909;28;36951;-80
2021/10/01 12:57:10;;;;;;;4.85;1.73;;;14.80;99.90;;;;;;5005525;28;38827;-79
2021/10/01 12:59:47;;;;;;;7.07;1.52;;;14.80;99.90;;;;;;4997926;28;42006;-79
2021/10/01 13:02:17;;;;;;;8.32;1.77;;;14.70;99.90;;;;;;5000104;28;39503;-80
2021/10/01 13:04:52;;;;;;;7.50;2.03;;;14.70;99.90;;;;;;5002386;28;38188;-79
2021/10/01 13:07:21;;;;;;;8.45;1.75;;;14.70;99.90;;;;;;4998730;28;38924;-79
2021/10/01 13:09:47;;;;;;;8.30;1.83;;;14.80;99.90;;;;;;4994164;28;40120;-79
2021/10/01 13:12:39;;;;;;;10.32;2.40;;;14.90;99.90;;;;;;5005937;28;39258;-80
2021/10/01 13:15:12;;;;;;;6.28;1.80;;;15.00;99.90;;;;;;5003643;28;38893;-79
2021/10/01 13:17:39;;;;;;;9.80;1.63;;;14.90;99.90;;;;;;5001948;28;39697;-80
2021/10/01 13:20:06;;;;;;;3.92;1.75;;;14.90;99.90;;;;;;5005272;28;39540;-79
2021/10/01 13:22:56;;;;;;;6.80;1.70;;;15.00;99.90;;;;;;5005723;28;38403;-80
2021/10/01 13:25:24;;;;;;;5.90;1.55;;;15.00;99.90;;;;;;4981871;28;37153;-80
2021/10/01 13:27:55;;;;;;;7.45;1.77;;;15.00;99.90;;;;;;4982371;28;40582;-80
2021/10/01 13:30:21;;;;;;;11.95;1.30;;;15.00;99.90;;;;;;4984654;28;38775;-79
2021/10/01 13:32:49;;;;;;;8.10;1.38;;;15.00;99.90;;;;;;4992306;28;38993;-80
2021/10/01 13:35:16;;;;;;;3.92;1.27;;;15.00;99.90;;;;;;4979898;28;37912;-80
2021/10/01 13:37:46;;;;;;;5.93;1.90;;;14.90;99.90;;;;;;4991712;28;39574;-79
2021/10/01 13:40:13;;;;;;;4.95;2.03;;;14.90;99.90;;;;;;4975223;28;40494;-79
2021/10/01 13:42:40;;;;;;;9.85;1.58;;;14.80;99.90;;;;;;4978529;28;39001;-80
2021/10/01 13:45:07;;;;;;;8.95;1.90;;;14.90;99.90;;;;;;4981168;28;39007;-79
2021/10/01 13:47:35;;;;;;;7.40;1.58;;;14.90;99.90;;;;;;4986565;28;40261;-79
2021/10/01 13:50:03;;;;;;;5.18;1.63;;;14.90;99.90;;;;;;4983857;28;39267;-80
2021/10/01 13:52:29;;;;;;;9.40;1.52;;;14.80;99.90;;;;;;4985156;28;40937;-79
2021/10/01 13:54:55;;;;;;;8.65;1.60;;;14.70;99.90;;;;;;4979981;28;37309;-80
2021/10/01 13:57:21;;;;;;;6.68;1.83;;;14.60;99.90;;;;;;4978630;28;39969;-80
2021/10/01 13:59:51;;;;;;;9.02;2.08;;;14.50;99.90;;;;;;4976024;28;38066;-80
2021/10/01 14:02:18;;;;;;;7.78;2.30;;;14.50;99.90;;;;;;4986025;28;38621;-81
2021/10/01 14:04:44;;;;;;;11.55;2.63;;;14.40;99.90;;;;;;4986580;28;37214;-79
2021/10/01 14:07:10;;;;;;;7.20;1.88;;;14.40;99.90;;;;;;4983619;28;39402;-81
2021/10/01 14:09:36;;;;;;;10.98;2.47;;;14.40;99.90;;;;;;4988573;28;37535;-81
2021/10/01 14:12:03;;;;;;;8.35;2.75;;;14.30;99.90;;;;;;4974516;28;38122;-80
2021/10/01 14:14:29;;;;;;;4.68;2.13;;;14.20;99.90;;;;;;4978840;28;36730;-81
2021/10/01 14:16:55;;;;;;;11.82;2.65;;;14.20;99.90;;;;;;4982563;28;39250;-80
2021/10/01 14:19:21;;;;;;;9.35;2.50;;;14.20;99.90;;;;;;4986710;28;39900;-81
2021/10/01 14:21:47;;;;;;;6.47;2.58;;;14.20;99.90;;;;;;4990752;28;38566;-81
2021/10/01 14:24:13;;;;;;;9.35;3.22;;;14.10;99.90;;;;;;4995611;28;37990;-81
2021/10/01 14:26:39;;;;;;;10.63;3.20;;;14.10;99.90;;;;;;4986087;28;39394;-82
2021/10/01 14:29:05;;;;;;;9.30;2.97;;;14.10;99.90;;;;;;4985516;28;39667;-81
2021/10/01 14:31:32;;;;;;;8.88;2.92;;;14.10;99.90;;;;;;4991116;28;38775;-81
2021/10/01 14:33:59;;;;;;;13.90;4.38;;;14.10;99.90;;;;;;5018445;28;37218;-81